Time;durP1;ratioP1;P1;durP2;ratioP2;P2;SDS_P1;SDS_P2;PMS_P1;PMS_P2;Temp;Humidity;BMP_temperature;BMP_pressure;BME280_temperature;BME280_humidity;BME280_pressure;Samples;Min_cycle;Max_cycle;Signal;HPM_P1;HPM_P2
2022/01/13 00:00:49;;;;;;;31.80;15.47;;;4.40;99.90;;;;;;5053713;28;20289;-72
2022/01/13 00:03:15;;;;;;;37.67;16.70;;;4.40;99.90;;;;;;5053690;28;20191;-72
2022/01/13 00:05:40;;;;;;;35.77;16.63;;;4.40;99.90;;;;;;5053507;28;20223;-73
2022/01/13 00:08:06;;;;;;;38.17;17.33;;;4.40;99.90;;;;;;5050705;28;20227;-72
2022/01/13 00:10:31;;;;;;;40.10;17.43;;;4.40;99.90;;;;;;5071271;28;20224;-72
2022/01/13 00:13:05;;;;;;;40.13;17.67;;;4.40;99.90;;;;;;5073299;28;20210;-73
2022/01/13 00:15:41;;;;;;;42.30;18.60;;;4.40;99.90;;;;;;5073349;28;20239;-72
2022/01/13 00:18:15;;;;;;;36.63;17.53;;;4.50;99.90;;;;;;5058302;28;20194;-72
2022/01/13 00:26:15;;;;;;;44.10;20.33;;;4.50;99.90;;;;;;5073255;28;20245;-72
2022/01/13 00:28:43;;;;;;;39.83;18.30;;;4.50;99.90;;;;;;5071030;28;22364;-72
2022/01/13 00:31:09;;;;;;;43.67;17.20;;;4.50;99.90;;;;;;5073197;28;20212;-72
2022/01/13 00:33:34;;;;;;;32.70;17.63;;;4.60;99.90;;;;;;5072344;28;20177;-73
2022/01/13 00:36:01;;;;;;;36.73;17.67;;;4.60;99.90;;;;;;5073520;28;20182;-72
2022/01/13 00:38:27;;;;;;;37.43;17.80;;;4.60;99.90;;;;;;5070681;28;20224;-73
2022/01/13 00:40:53;;;;;;;31.73;17.10;;;4.50;99.90;;;;;;5073069;28;20203;-72
2022/01/13 00:43:19;;;;;;;39.73;18.00;;;4.50;99.90;;;;;;5072556;28;20215;-73
2022/01/13 00:45:47;;;;;;;37.07;18.33;;;4.50;99.90;;;;;;5072646;28;20202;-72
2022/01/13 00:48:13;;;;;;;40.67;18.17;;;4.50;99.90;;;;;;5056770;28;20207;-71
2022/01/13 00:50:38;;;;;;;37.87;17.07;;;4.50;99.90;;;;;;5051315;28;20570;-72
2022/01/13 00:53:04;;;;;;;39.50;19.03;;;4.50;99.90;;;;;;5052409;28;20214;-73
2022/01/13 00:55:44;;;;;;;38.70;17.43;;;4.50;99.90;;;;;;5052377;28;20709;-72
2022/01/13 00:58:10;;;;;;;37.57;18.53;;;4.60;99.90;;;;;;5051928;28;20226;-72
2022/01/13 01:00:36;;;;;;;39.37;18.37;;;4.60;99.90;;;;;;5052417;28;20530;-72
2022/01/13 01:03:01;;;;;;;38.87;18.57;;;4.60;99.90;;;;;;5052771;28;20186;-72
2022/01/13 01:05:27;;;;;;;40.20;18.63;;;4.60;99.90;;;;;;5050682;28;20207;-72
2022/01/13 01:07:52;;;;;;;41.73;19.13;;;4.60;99.90;;;;;;5051915;28;20335;-71
2022/01/13 01:10:19;;;;;;;45.67;18.67;;;4.60;99.90;;;;;;5052305;28;20279;-72
2022/01/13 01:12:45;;;;;;;38.30;17.53;;;4.50;99.90;;;;;;5051986;28;20213;-73
2022/01/13 01:15:11;;;;;;;41.97;18.67;;;4.60;99.90;;;;;;5052386;28;20212;-72
2022/01/13 01:17:43;;;;;;;41.03;20.50;;;4.60;99.90;;;;;;5061199;28;20221;-72
2022/01/13 01:20:09;;;;;;;42.37;19.33;;;4.60;99.90;;;;;;5070130;28;20677;-72
2022/01/13 01:22:42;;;;;;;41.00;19.43;;;4.60;99.90;;;;;;5071854;28;20308;-72
2022/01/13 01:27:45;;;;;;;36.87;19.07;;;4.60;99.90;;;;;;5071328;28;20266;-72
2022/01/13 01:30:23;;;;;;;47.07;20.73;;;4.60;99.90;;;;;;5072293;28;20180;-72
2022/01/13 01:32:48;;;;;;;42.17;18.20;;;4.60;99.90;;;;;;5071802;28;20204;-72
2022/01/13 01:35:16;;;;;;;41.30;19.83;;;4.60;99.90;;;;;;5070352;28;20273;-72
2022/01/13 01:37:42;;;;;;;43.03;20.77;;;4.60;99.90;;;;;;5071279;28;20222;-72
2022/01/13 01:40:11;;;;;;;55.80;21.77;;;4.60;99.90;;;;;;5071270;28;20300;-72
2022/01/13 01:42:37;;;;;;;41.63;20.03;;;4.60;99.90;;;;;;5071406;28;20185;-72
2022/01/13 01:45:03;;;;;;;38.43;19.97;;;4.50;99.90;;;;;;5072050;28;20650;-72
2022/01/13 01:47:30;;;;;;;43.13;19.50;;;4.60;99.90;;;;;;5061515;28;20321;-72
2022/01/13 01:50:05;;;;;;;39.07;18.57;;;4.60;99.90;;;;;;5051686;28;20722;-72
2022/01/13 01:52:31;;;;;;;42.53;19.97;;;4.60;99.90;;;;;;5051416;28;20214;-72
2022/01/13 01:54:56;;;;;;;46.27;21.13;;;4.60;99.90;;;;;;5070168;28;20221;-72
2022/01/13 01:57:23;;;;;;;38.10;20.17;;;4.60;99.90;;;;;;5071510;28;20220;-74
2022/01/13 01:59:49;;;;;;;39.73;20.03;;;4.60;99.90;;;;;;5069717;28;20262;-73
2022/01/13 02:02:15;;;;;;;48.10;21.47;;;4.60;99.90;;;;;;5071369;28;20255;-73
2022/01/13 02:04:42;;;;;;;45.40;22.50;;;4.60;99.90;;;;;;5069692;28;20225;-72
2022/01/13 02:07:08;;;;;;;37.00;20.60;;;4.60;99.90;;;;;;5071316;28;20736;-72
2022/01/13 02:09:37;;;;;;;46.10;21.23;;;4.60;99.90;;;;;;5069260;28;20213;-72
2022/01/13 02:12:10;;;;;;;43.73;21.03;;;4.60;99.90;;;;;;5071900;28;20269;-72
2022/01/13 02:14:49;;;;;;;40.63;19.70;;;4.60;99.90;;;;;;5069565;28;20691;-72
2022/01/13 02:17:23;;;;;;;46.47;21.13;;;4.60;99.90;;;;;;5063423;28;20203;-72
2022/01/13 02:19:52;;;;;;;49.00;22.57;;;4.60;99.90;;;;;;5050686;28;20206;-72
2022/01/13 02:22:17;;;;;;;43.93;21.00;;;4.60;99.90;;;;;;5050009;28;20620;-72
2022/01/13 02:24:43;;;;;;;47.20;21.73;;;4.60;99.90;;;;;;5050867;28;20213;-72
2022/01/13 02:27:08;;;;;;;45.87;21.77;;;4.60;99.90;;;;;;5051309;28;20209;-73
2022/01/13 02:29:34;;;;;;;40.13;20.70;;;4.60;99.90;;;;;;5049153;28;20224;-72
2022/01/13 02:32:01;;;;;;;47.90;22.53;;;4.60;99.90;;;;;;5057599;28;20201;-72
2022/01/13 02:34:26;;;;;;;47.13;21.90;;;4.60;99.90;;;;;;5051755;28;20215;-73
2022/01/13 02:36:56;;;;;;;40.50;21.53;;;4.60;99.90;;;;;;5051173;28;20812;-72
2022/01/13 02:39:23;;;;;;;46.43;22.07;;;4.60;99.90;;;;;;5050688;28;20184;-72
2022/01/13 02:41:49;;;;;;;48.43;22.07;;;4.60;99.90;;;;;;5051223;28;20211;-73
2022/01/13 02:44:19;;;;;;;45.43;21.47;;;4.60;99.90;;;;;;5058273;28;20267;-72
2022/01/13 02:49:16;;;;;;;43.23;22.07;;;4.60;99.90;;;;;;5070085;28;20593;-74
2022/01/13 02:51:44;;;;;;;49.70;21.93;;;4.60;99.90;;;;;;5070871;28;20178;-72
2022/01/13 02:54:10;;;;;;;48.63;21.93;;;4.60;99.90;;;;;;5071138;28;20197;-72
2022/01/13 02:56:37;;;;;;;46.70;21.37;;;4.60;99.90;;;;;;5070617;28;20218;-72
2022/01/13 02:59:05;;;;;;;41.70;22.00;;;4.60;99.90;;;;;;5070134;28;20211;-72
2022/01/13 03:01:31;;;;;;;46.70;23.67;;;4.60;99.90;;;;;;5070564;28;20236;-73
2022/01/13 03:03:57;;;;;;;47.80;22.33;;;4.60;99.90;;;;;;5068939;28;20224;-74
2022/01/13 03:06:34;;;;;;;50.97;23.20;;;4.60;99.90;;;;;;5071042;28;20208;-72
2022/01/13 03:09:00;;;;;;;50.90;23.30;;;4.60;99.90;;;;;;5070542;28;20709;-72
2022/01/13 03:11:32;;;;;;;43.47;22.10;;;4.50;99.90;;;;;;5069283;28;20690;-73
2022/01/13 03:13:58;;;;;;;45.63;22.00;;;4.50;99.90;;;;;;5070146;28;20261;-72
2022/01/13 03:16:23;;;;;;;43.87;21.67;;;4.50;99.90;;;;;;5070040;28;20220;-73
2022/01/13 03:18:49;;;;;;;46.60;22.03;;;4.50;99.90;;;;;;5049867;28;20222;-72
2022/01/13 03:21:15;;;;;;;46.97;21.63;;;4.50;99.90;;;;;;5051055;28;20218;-72
2022/01/13 03:23:42;;;;;;;50.70;22.37;;;4.50;99.90;;;;;;5050155;28;20218;-72
2022/01/13 03:26:07;;;;;;;52.13;23.37;;;4.50;99.90;;;;;;5050536;28;20301;-72
2022/01/13 03:28:50;;;;;;;45.77;22.33;;;4.50;99.90;;;;;;5051056;28;20325;-72
2022/01/13 03:31:24;;;;;;;45.93;21.63;;;4.50;99.90;;;;;;5065266;28;20214;-72
2022/01/13 03:33:51;;;;;;;47.70;21.43;;;4.50;99.90;;;;;;5052652;28;20257;-72
2022/01/13 03:36:17;;;;;;;47.20;21.87;;;4.50;99.90;;;;;;5063164;28;20572;-72
2022/01/13 03:38:43;;;;;;;48.50;22.20;;;4.50;99.90;;;;;;5049358;28;20224;-72
2022/01/13 03:41:08;;;;;;;41.77;21.40;;;4.40;99.90;;;;;;5050420;28;20222;-72
2022/01/13 03:43:36;;;;;;;46.27;22.90;;;4.40;99.90;;;;;;5051007;28;20592;-73
2022/01/13 03:46:03;;;;;;;47.20;22.53;;;4.40;99.90;;;;;;5053931;28;20238;-73
2022/01/13 03:48:28;;;;;;;51.90;21.83;;;4.50;99.90;;;;;;5052752;28;20218;-72
2022/01/13 03:50:54;;;;;;;49.73;21.83;;;4.50;99.90;;;;;;5054285;28;20182;-74
2022/01/13 03:53:28;;;;;;;46.50;22.53;;;4.50;99.90;;;;;;5060364;28;20327;-72
2022/01/13 03:56:48;;;;;;;46.07;22.93;;;4.50;99.90;;;;;;5069072;28;20211;-72
2022/01/13 03:59:56;;;;;;;50.10;22.73;;;4.50;99.90;;;;;;5053145;28;20215;-72
2022/01/13 04:02:22;;;;;;;48.67;22.67;;;4.40;99.90;;;;;;5038966;28;20672;-72
2022/01/13 04:04:49;;;;;;;51.13;23.03;;;4.40;99.90;;;;;;5055820;28;20217;-72
2022/01/13 04:07:23;;;;;;;54.23;24.03;;;4.40;99.90;;;;;;5063822;28;20257;-73
2022/01/13 04:09:49;;;;;;;51.97;23.73;;;4.40;99.90;;;;;;5069043;28;20242;-72
2022/01/13 04:12:16;;;;;;;49.60;23.27;;;4.50;99.90;;;;;;5053969;28;20810;-72
2022/01/13 04:17:13;;;;;;;48.40;25.00;;;4.50;99.90;;;;;;5053218;28;20264;-72
2022/01/13 04:19:39;;;;;;;46.73;23.67;;;4.40;99.90;;;;;;5052590;28;20221;-72
2022/01/13 04:22:06;;;;;;;55.57;24.73;;;4.40;99.90;;;;;;5053277;28;20213;-72
2022/01/13 04:24:32;;;;;;;50.20;24.07;;;4.40;99.90;;;;;;5052726;28;20179;-72
2022/01/13 04:26:58;;;;;;;50.63;25.97;;;4.50;99.90;;;;;;5057336;28;20567;-72
2022/01/13 04:29:34;;;;;;;58.40;25.77;;;4.40;99.90;;;;;;5062639;28;20218;-72
2022/01/13 04:32:00;;;;;;;52.30;25.80;;;4.40;99.90;;;;;;5058447;28;20702;-72
2022/01/13 04:34:26;;;;;;;54.27;24.43;;;4.40;99.90;;;;;;5052501;28;20210;-72
2022/01/13 04:36:54;;;;;;;56.43;26.77;;;4.40;99.90;;;;;;5053075;28;20268;-72
2022/01/13 04:39:20;;;;;;;60.00;25.93;;;4.40;99.90;;;;;;5059535;28;20672;-72
2022/01/13 04:41:47;;;;;;;52.20;24.57;;;4.40;99.90;;;;;;5059732;28;20286;-71
2022/01/13 04:44:16;;;;;;;51.00;24.13;;;4.40;99.90;;;;;;5059410;28;20305;-72
2022/01/13 04:46:42;;;;;;;50.87;25.97;;;4.40;99.90;;;;;;5052512;28;20205;-73
2022/01/13 04:49:08;;;;;;;53.33;25.77;;;4.40;99.90;;;;;;5052013;28;20591;-74
2022/01/13 04:51:34;;;;;;;60.63;25.90;;;4.30;99.90;;;;;;5052589;28;20204;-72
2022/01/13 04:54:00;;;;;;;53.40;25.53;;;4.40;99.90;;;;;;5052695;28;20273;-72
2022/01/13 04:56:31;;;;;;;59.23;26.27;;;4.30;99.90;;;;;;5059126;28;20209;-72
2022/01/13 04:58:58;;;;;;;55.27;23.93;;;4.30;99.90;;;;;;5058769;28;20304;-73
2022/01/13 05:01:24;;;;;;;50.80;24.30;;;4.40;99.90;;;;;;5059377;28;20213;-72
2022/01/13 05:03:49;;;;;;;54.83;25.50;;;4.40;99.90;;;;;;5052156;28;20221;-73
2022/01/13 05:06:19;;;;;;;54.80;24.97;;;4.30;99.90;;;;;;5052675;28;20181;-72
2022/01/13 05:08:45;;;;;;;54.67;25.67;;;4.40;99.90;;;;;;5051635;28;20228;-72
2022/01/13 05:11:11;;;;;;;54.23;24.53;;;4.30;99.90;;;;;;5059112;28;20624;-72
2022/01/13 05:13:36;;;;;;;56.27;24.47;;;4.30;99.90;;;;;;5075397;28;20267;-72
2022/01/13 05:16:01;;;;;;;58.97;25.67;;;4.30;99.90;;;;;;5052167;28;20360;-72
2022/01/13 05:19:15;;;;;;;52.77;24.60;;;4.30;99.90;;;;;;5059082;28;20199;-73
2022/01/13 05:21:37;;;;;;;53.30;23.00;;;4.30;99.90;;;;;;5050834;28;20555;-72
2022/01/13 05:24:03;;;;;;;54.53;24.53;;;4.30;99.90;;;;;;5052359;28;20209;-72
2022/01/13 05:26:29;;;;;;;50.77;24.63;;;4.30;99.90;;;;;;5051692;28;20217;-72
2022/01/13 05:28:54;;;;;;;50.13;24.67;;;4.30;99.90;;;;;;5055943;23;20260;-72
2022/01/13 05:31:20;;;;;;;50.97;24.93;;;4.30;99.90;;;;;;5030768;28;20214;-71
2022/01/13 05:33:45;;;;;;;55.17;25.03;;;4.30;99.90;;;;;;5031454;28;20209;-71
2022/01/13 05:36:13;;;;;;;54.87;24.00;;;4.30;99.90;;;;;;5032210;28;20258;-71
2022/01/13 05:38:42;;;;;;;51.73;24.43;;;4.30;99.90;;;;;;5026068;28;20217;-72
2022/01/13 05:41:07;;;;;;;56.73;25.87;;;4.30;99.90;;;;;;5012118;28;20202;-71
2022/01/13 05:43:33;;;;;;;58.67;24.63;;;4.30;99.90;;;;;;5011564;28;20294;-71
2022/01/13 05:45:58;;;;;;;61.40;25.83;;;4.30;99.90;;;;;;5016989;28;20280;-72
2022/01/13 05:48:24;;;;;;;58.30;25.20;;;4.30;99.90;;;;;;5030092;28;20214;-71
2022/01/13 05:50:50;;;;;;;55.23;25.33;;;4.30;99.90;;;;;;5031889;28;20636;-71
2022/01/13 05:53:15;;;;;;;56.17;25.70;;;4.30;99.90;;;;;;5031573;28;20214;-71
2022/01/13 05:55:41;;;;;;;53.40;23.87;;;4.30;99.90;;;;;;5013444;28;20576;-72
2022/01/13 05:58:06;;;;;;;52.43;23.10;;;4.30;99.90;;;;;;5031154;28;20212;-71
2022/01/13 06:00:32;;;;;;;55.47;23.87;;;4.30;99.90;;;;;;5013454;28;20663;-71
2022/01/13 06:02:58;;;;;;;53.97;22.77;;;4.30;99.90;;;;;;5031763;28;20239;-71
2022/01/13 06:05:23;;;;;;;52.53;23.40;;;4.30;99.90;;;;;;5030950;28;20283;-71
2022/01/13 06:07:49;;;;;;;53.43;22.77;;;4.30;99.90;;;;;;5030263;28;20218;-71
2022/01/13 06:10:19;;;;;;;51.87;23.30;;;4.30;99.90;;;;;;5031139;28;20709;-72
2022/01/13 06:12:49;;;;;;;59.97;25.33;;;4.30;99.90;;;;;;5030976;28;20223;-73
2022/01/13 06:15:18;;;;;;;53.97;23.73;;;4.40;99.90;;;;;;5031389;28;20705;-71
2022/01/13 06:17:45;;;;;;;49.83;23.23;;;4.30;99.90;;;;;;5030406;28;20202;-72
2022/01/13 06:20:12;;;;;;;54.73;24.80;;;4.40;99.90;;;;;;5030930;28;20204;-72
2022/01/13 06:22:39;;;;;;;50.30;22.80;;;4.30;99.90;;;;;;5030799;28;20211;-71
2022/01/13 06:25:07;;;;;;;56.50;24.10;;;4.40;99.90;;;;;;5013178;28;20769;-72
2022/01/13 06:27:32;;;;;;;56.57;22.73;;;4.40;99.90;;;;;;5030879;28;20206;-72
2022/01/13 06:29:58;;;;;;;54.07;23.43;;;4.40;99.90;;;;;;5030826;28;20583;-72
2022/01/13 06:32:24;;;;;;;52.93;24.50;;;4.40;99.90;;;;;;5013027;28;20210;-72
2022/01/13 06:34:50;;;;;;;55.47;23.30;;;4.40;99.90;;;;;;5030400;28;20207;-71
2022/01/13 06:37:16;;;;;;;51.87;23.30;;;4.40;99.90;;;;;;5030862;28;20221;-73
2022/01/13 06:39:41;;;;;;;54.23;22.77;;;4.40;99.90;;;;;;5012203;28;20300;-72
2022/01/13 06:42:08;;;;;;;49.20;21.77;;;4.40;99.90;;;;;;5031287;28;20183;-72
2022/01/13 06:44:33;;;;;;;49.70;23.20;;;4.40;99.90;;;;;;5012485;28;20300;-72
2022/01/13 06:46:59;;;;;;;55.40;21.83;;;4.40;99.90;;;;;;5030558;28;20301;-72
2022/01/13 06:49:24;;;;;;;55.47;24.73;;;4.40;99.90;;;;;;5029729;28;20713;-73
2022/01/13 06:51:50;;;;;;;50.37;22.63;;;4.40;99.90;;;;;;5012954;28;20299;-71
2022/01/13 06:54:15;;;;;;;56.00;23.27;;;4.40;99.90;;;;;;5030778;28;20196;-72
2022/01/13 06:56:41;;;;;;;52.73;23.37;;;4.40;99.90;;;;;;5012979;28;20340;-72
2022/01/13 06:59:11;;;;;;;54.67;23.93;;;4.40;99.90;;;;;;5029952;28;20220;-72
2022/01/13 07:01:38;;;;;;;56.17;23.63;;;4.40;99.90;;;;;;5030455;28;20684;-72
2022/01/13 07:04:05;;;;;;;48.67;22.17;;;4.40;99.90;;;;;;5030337;28;20690;-72
2022/01/13 07:06:30;;;;;;;53.00;23.17;;;4.40;99.90;;;;;;5012732;28;20202;-72
2022/01/13 07:08:56;;;;;;;58.73;24.13;;;4.50;99.90;;;;;;5012659;28;20732;-72
2022/01/13 07:11:21;;;;;;;52.30;23.97;;;4.50;99.90;;;;;;5012986;28;20208;-72
2022/01/13 07:13:47;;;;;;;52.83;23.53;;;4.40;99.90;;;;;;5030000;28;20584;-72
2022/01/13 07:16:12;;;;;;;52.83;22.27;;;4.40;99.90;;;;;;5030499;28;20262;-73
2022/01/13 07:18:41;;;;;;;45.70;21.43;;;4.40;99.90;;;;;;5031166;28;20698;-72
2022/01/13 07:21:08;;;;;;;53.13;23.60;;;4.40;99.90;;;;;;5034941;28;20598;-72
2022/01/13 07:23:35;;;;;;;60.63;24.53;;;4.40;99.90;;;;;;5016489;28;20294;-72
2022/01/13 07:26:02;;;;;;;55.30;23.40;;;4.40;99.90;;;;;;5034153;28;20206;-72
2022/01/13 07:28:29;;;;;;;52.53;23.50;;;4.40;99.90;;;;;;5033547;28;20231;-73
2022/01/13 07:30:55;;;;;;;51.33;25.30;;;4.40;99.90;;;;;;5016232;28;20223;-72
2022/01/13 07:33:21;;;;;;;54.43;23.30;;;4.40;99.90;;;;;;5016770;28;20530;-72
2022/01/13 07:35:46;;;;;;;53.67;23.07;;;4.40;99.90;;;;;;5033936;28;20289;-72
2022/01/13 07:38:11;;;;;;;54.17;24.07;;;4.40;99.90;;;;;;5015816;28;20221;-72
2022/01/13 07:40:37;;;;;;;52.77;24.00;;;4.40;99.90;;;;;;5034033;28;20223;-72
2022/01/13 07:43:02;;;;;;;57.37;23.33;;;4.40;99.90;;;;;;5042189;28;20581;-73
2022/01/13 07:45:28;;;;;;;54.30;24.07;;;4.40;99.90;;;;;;5044259;28;20190;-73
2022/01/13 07:47:53;;;;;;;53.40;22.87;;;4.40;99.90;;;;;;5037301;28;20238;-73
2022/01/13 07:50:19;;;;;;;55.03;22.53;;;4.40;99.90;;;;;;5033795;28;20214;-73
2022/01/13 07:52:44;;;;;;;49.47;23.13;;;4.40;99.90;;;;;;5015916;28;20213;-72
2022/01/13 07:55:11;;;;;;;58.33;24.40;;;4.40;99.90;;;;;;5033455;28;20229;-72
2022/01/13 07:57:37;;;;;;;52.60;22.40;;;4.40;99.90;;;;;;5033540;28;20176;-74
2022/01/13 08:00:05;;;;;;;55.43;22.30;;;4.40;99.90;;;;;;5033597;28;20621;-72
2022/01/13 08:02:30;;;;;;;55.17;22.60;;;4.50;99.90;;;;;;5033612;28;20214;-72
2022/01/13 08:04:56;;;;;;;54.70;23.97;;;4.50;99.90;;;;;;5033198;28;20217;-72
2022/01/13 08:07:21;;;;;;;55.77;23.93;;;4.50;99.90;;;;;;5033408;28;20322;-72
2022/01/13 08:09:47;;;;;;;55.07;24.23;;;4.40;99.90;;;;;;5015096;28;20271;-72
2022/01/13 08:12:12;;;;;;;55.33;24.67;;;4.50;99.90;;;;;;5016238;28;20635;-72
2022/01/13 08:14:38;;;;;;;51.67;22.43;;;4.50;99.90;;;;;;5014936;28;20219;-72
2022/01/13 08:17:06;;;;;;;47.13;22.20;;;4.50;99.90;;;;;;5033289;28;20225;-72
2022/01/13 08:19:48;;;;;;;56.50;23.97;;;4.50;99.90;;;;;;5014744;28;20219;-72
2022/01/13 08:22:14;;;;;;;49.03;21.70;;;4.50;99.90;;;;;;5033278;28;20210;-72
2022/01/13 08:24:40;;;;;;;53.73;24.07;;;4.50;99.90;;;;;;5032740;28;20716;-72
2022/01/13 08:27:06;;;;;;;47.40;21.07;;;4.50;99.90;;;;;;5033306;28;20302;-73
2022/01/13 08:29:31;;;;;;;55.13;22.60;;;4.50;99.90;;;;;;5032177;28;20308;-73
2022/01/13 08:31:57;;;;;;;51.87;22.23;;;4.50;99.90;;;;;;5033110;28;20212;-72
2022/01/13 08:34:23;;;;;;;54.00;22.90;;;4.50;99.90;;;;;;5032688;28;20657;-72
2022/01/13 08:36:48;;;;;;;55.17;22.13;;;4.60;99.90;;;;;;5033030;28;20573;-72
2022/01/13 08:39:14;;;;;;;51.13;22.63;;;4.50;99.90;;;;;;5015099;28;20609;-72
2022/01/13 08:41:40;;;;;;;50.10;21.57;;;4.60;99.90;;;;;;5014857;28;20254;-72
2022/01/13 08:44:06;;;;;;;51.23;21.37;;;4.50;99.90;;;;;;5032637;28;20214;-72
2022/01/13 08:46:31;;;;;;;55.13;22.03;;;4.60;99.90;;;;;;5032673;28;20231;-72
2022/01/13 08:48:57;;;;;;;48.80;20.57;;;4.60;99.90;;;;;;5031998;28;20219;-72
2022/01/13 08:51:23;;;;;;;56.63;23.67;;;4.70;99.90;;;;;;5033030;28;20182;-71
2022/01/13 08:53:49;;;;;;;48.37;22.30;;;4.60;99.90;;;;;;5032542;28;20228;-72
2022/01/13 08:56:15;;;;;;;53.13;23.30;;;4.60;99.90;;;;;;5014738;28;20241;-72
2022/01/13 08:58:41;;;;;;;55.40;22.67;;;4.60;99.90;;;;;;5031822;28;20246;-72
2022/01/13 09:01:07;;;;;;;46.20;20.67;;;4.70;99.90;;;;;;5032245;28;20241;-72
2022/01/13 09:03:33;;;;;;;52.87;20.60;;;4.70;99.90;;;;;;5032286;28;20180;-73
2022/01/13 09:05:59;;;;;;;46.73;21.13;;;4.70;99.90;;;;;;5031469;28;20176;-73
2022/01/13 09:08:25;;;;;;;54.10;21.57;;;4.80;99.90;;;;;;5005625;28;20716;-74
2022/01/13 09:10:51;;;;;;;46.37;20.03;;;4.70;99.90;;;;;;5032224;28;20293;-72
2022/01/13 09:13:17;;;;;;;47.67;21.40;;;4.70;99.90;;;;;;5032288;28;20606;-72
2022/01/13 09:15:51;;;;;;;47.57;20.67;;;4.70;99.90;;;;;;5032114;28;20176;-72
2022/01/13 09:18:29;;;;;;;50.37;20.93;;;4.70;99.90;;;;;;5032186;28;20199;-72
2022/01/13 09:20:55;;;;;;;52.53;21.97;;;4.80;99.90;;;;;;5014738;28;20206;-72
2022/01/13 09:23:21;;;;;;;48.97;19.57;;;4.70;99.90;;;;;;5031838;28;20294;-73
2022/01/13 09:25:47;;;;;;;49.80;22.37;;;4.70;99.90;;;;;;5031833;28;20655;-73
2022/01/13 09:28:13;;;;;;;57.67;23.57;;;4.70;99.90;;;;;;5031367;28;20223;-73
2022/01/13 09:30:39;;;;;;;54.43;21.67;;;4.70;99.90;;;;;;5013897;28;20274;-73
2022/01/13 09:33:05;;;;;;;51.53;22.60;;;4.70;99.90;;;;;;5032715;28;20210;-73
2022/01/13 09:35:31;;;;;;;56.77;22.80;;;4.70;99.90;;;;;;5013958;28;20771;-73
2022/01/13 09:37:56;;;;;;;47.87;21.97;;;4.70;99.90;;;;;;5031293;28;20296;-73
2022/01/13 09:40:22;;;;;;;50.60;21.73;;;4.70;99.90;;;;;;5031321;28;20688;-71
2022/01/13 09:42:48;;;;;;;54.13;22.00;;;4.70;99.90;;;;;;5031479;28;20286;-71
2022/01/13 09:45:15;;;;;;;52.40;22.10;;;4.70;99.90;;;;;;5032048;28;20182;-71
2022/01/13 09:47:41;;;;;;;54.23;22.17;;;4.80;99.90;;;;;;5031503;28;20254;-71
2022/01/13 09:50:10;;;;;;;53.37;22.37;;;4.80;99.90;;;;;;5031041;28;20210;-71
2022/01/13 09:52:37;;;;;;;58.30;23.23;;;4.80;99.90;;;;;;5031606;28;20288;-71
2022/01/13 09:55:05;;;;;;;52.67;21.00;;;4.80;99.90;;;;;;5031179;28;20567;-71
2022/01/13 09:57:30;;;;;;;51.53;20.87;;;4.70;99.90;;;;;;5030256;28;20339;-71
2022/01/13 09:59:58;;;;;;;49.00;20.67;;;4.70;99.90;;;;;;5026535;28;20719;-71
2022/01/13 10:02:29;;;;;;;53.30;21.27;;;4.70;99.90;;;;;;5010600;28;20215;-71
2022/01/13 10:04:55;;;;;;;45.90;19.33;;;4.80;99.90;;;;;;5031179;28;20204;-72
2022/01/13 10:07:43;;;;;;;53.03;21.70;;;4.80;99.90;;;;;;5030964;28;20227;-71
2022/01/13 10:10:16;;;;;;;54.97;21.70;;;4.70;99.90;;;;;;5030793;28;20283;-69
2022/01/13 10:12:59;;;;;;;52.57;21.17;;;4.70;99.90;;;;;;5031085;28;20183;-72
2022/01/13 10:18:09;;;;;;;54.33;22.17;;;4.70;99.90;;;;;;5031492;28;20210;-72
2022/01/13 10:20:35;;;;;;;54.37;22.27;;;4.70;99.90;;;;;;5030884;28;20216;-69
2022/01/13 10:23:07;;;;;;;51.37;20.20;;;4.70;99.90;;;;;;5031608;28;20222;-72
2022/01/13 10:25:38;;;;;;;49.67;21.90;;;4.70;99.90;;;;;;5030914;28;20215;-72
2022/01/13 10:28:22;;;;;;;47.97;20.53;;;4.70;99.90;;;;;;5030160;28;20684;-72
2022/01/13 10:30:51;;;;;;;47.70;20.53;;;4.80;99.90;;;;;;5023119;28;20225;-72
2022/01/13 10:33:21;;;;;;;52.43;22.23;;;4.80;99.90;;;;;;5031409;28;20188;-72
2022/01/13 10:35:48;;;;;;;51.57;20.57;;;4.80;99.90;;;;;;5022815;28;20206;-71
2022/01/13 10:38:18;;;;;;;52.67;21.30;;;4.80;99.90;;;;;;5030370;28;20718;-72
2022/01/13 10:40:47;;;;;;;42.97;19.13;;;4.80;99.90;;;;;;5030704;28;20719;-72
2022/01/13 10:43:15;;;;;;;47.87;20.67;;;4.70;99.90;;;;;;5030612;28;20653;-71
2022/01/13 10:45:48;;;;;;;49.40;20.40;;;4.80;99.90;;;;;;5030598;28;20190;-72
2022/01/13 10:48:28;;;;;;;50.37;20.67;;;4.80;99.90;;;;;;5030617;28;20214;-72
2022/01/13 10:51:04;;;;;;;43.83;18.57;;;4.90;99.90;;;;;;5030578;28;20290;-73
2022/01/13 10:53:35;;;;;;;42.70;17.50;;;4.90;99.90;;;;;;5031584;28;20210;-73
2022/01/13 10:56:07;;;;;;;50.23;18.70;;;4.90;99.90;;;;;;5034989;28;20287;-72
2022/01/13 10:58:38;;;;;;;47.30;18.80;;;4.80;99.90;;;;;;5034450;28;20588;-71
2022/01/13 11:01:05;;;;;;;43.63;18.23;;;4.90;99.90;;;;;;5034971;28;20211;-71
2022/01/13 11:03:34;;;;;;;51.67;19.83;;;4.80;99.90;;;;;;5034393;28;20185;-69
2022/01/13 11:06:03;;;;;;;52.90;20.63;;;4.80;99.90;;;;;;5017557;28;20256;-72
2022/01/13 11:08:42;;;;;;;46.50;18.70;;;4.80;99.90;;;;;;5035389;28;20703;-71
2022/01/13 11:11:22;;;;;;;48.03;20.00;;;4.80;99.90;;;;;;5034282;28;20211;-71
2022/01/13 11:13:54;;;;;;;43.20;18.17;;;4.80;99.90;;;;;;5034300;28;20625;-74
2022/01/13 11:16:24;;;;;;;48.20;20.13;;;4.80;99.90;;;;;;5034496;28;20737;-71
2022/01/13 11:18:51;;;;;;;47.53;18.73;;;4.90;99.90;;;;;;5035082;28;20315;-71
2022/01/13 11:21:16;;;;;;;42.43;18.17;;;4.90;99.90;;;;;;5034726;28;20218;-71
2022/01/13 11:23:45;;;;;;;45.30;19.20;;;4.90;99.90;;;;;;5034002;28;20219;-71
2022/01/13 11:26:13;;;;;;;46.80;18.07;;;5.00;99.90;;;;;;5034169;28;20699;-72
2022/01/13 11:31:11;;;;;;;42.47;17.67;;;5.00;99.90;;;;;;5063667;28;20233;-75
2022/01/13 11:33:38;;;;;;;41.30;18.50;;;5.00;99.90;;;;;;5062323;28;20190;-74
2022/01/13 11:36:06;;;;;;;39.37;17.37;;;5.00;99.90;;;;;;5063042;28;20227;-75
2022/01/13 11:38:32;;;;;;;41.93;18.13;;;5.00;99.90;;;;;;5045419;28;20240;-75
2022/01/13 11:41:04;;;;;;;39.33;16.60;;;5.00;99.90;;;;;;5073788;28;20214;-74
2022/01/13 11:43:41;;;;;;;41.77;16.03;;;4.90;99.90;;;;;;5072330;28;20226;-75
2022/01/13 11:46:21;;;;;;;38.97;17.83;;;5.00;99.90;;;;;;5073778;28;20214;-75
2022/01/13 11:49:01;;;;;;;37.80;16.77;;;5.00;99.90;;;;;;5071800;28;20224;-75
2022/01/13 11:51:39;;;;;;;40.27;17.57;;;5.00;99.90;;;;;;5073819;28;20199;-75
2022/01/13 11:54:05;;;;;;;37.93;15.90;;;5.00;99.90;;;;;;5073832;28;20552;-77
2022/01/13 11:56:31;;;;;;;39.83;15.47;;;5.00;99.90;;;;;;5073537;28;20236;-75
2022/01/13 11:58:57;;;;;;;40.87;16.67;;;5.10;99.90;;;;;;5072886;28;20209;-74
2022/01/13 12:01:32;;;;;;;40.50;17.07;;;5.10;99.90;;;;;;5073430;28;20220;-74
2022/01/13 12:04:03;;;;;;;42.13;17.27;;;5.10;99.90;;;;;;5071478;28;20205;-74
2022/01/13 12:06:49;;;;;;;37.23;15.77;;;5.20;99.90;;;;;;5071023;28;20186;-74
2022/01/13 12:09:20;;;;;;;38.17;16.93;;;5.20;99.90;;;;;;5061076;28;20210;-75
2022/01/13 12:11:51;;;;;;;38.50;17.33;;;5.20;99.90;;;;;;5065397;28;20229;-75
2022/01/13 12:14:27;;;;;;;33.90;15.70;;;5.20;99.90;;;;;;5071675;28;20292;-76
2022/01/13 12:17:18;;;;;;;40.43;17.13;;;5.20;99.90;;;;;;5064885;28;20221;-76
2022/01/13 12:19:49;;;;;;;39.83;16.43;;;5.30;99.90;;;;;;5072385;28;20211;-76
2022/01/13 12:22:21;;;;;;;35.40;15.33;;;5.20;99.90;;;;;;5073229;28;20221;-76
2022/01/13 12:24:59;;;;;;;35.30;16.27;;;5.20;99.90;;;;;;5071476;28;20224;-75
2022/01/13 12:27:44;;;;;;;39.23;15.60;;;5.20;99.90;;;;;;5071851;28;20209;-76
2022/01/13 12:30:20;;;;;;;29.33;14.10;;;5.20;99.90;;;;;;5063636;28;20210;-75
2022/01/13 12:32:58;;;;;;;37.27;16.47;;;5.20;99.90;;;;;;5063397;28;20202;-74
2022/01/13 12:35:37;;;;;;;35.07;15.70;;;5.30;99.90;;;;;;5072675;28;20206;-75
2022/01/13 12:38:10;;;;;;;38.67;16.37;;;5.20;99.90;;;;;;5071372;28;20202;-75
2022/01/13 12:40:45;;;;;;;35.67;15.00;;;5.20;99.90;;;;;;5071500;28;20215;-75
2022/01/13 12:43:23;;;;;;;33.10;15.37;;;5.30;99.90;;;;;;5073208;28;20217;-75
2022/01/13 12:45:50;;;;;;;29.67;14.10;;;5.30;99.90;;;;;;5072892;28;20214;-76
2022/01/13 12:48:16;;;;;;;38.80;15.50;;;5.30;99.90;;;;;;5072515;28;20555;-75
2022/01/13 12:50:43;;;;;;;37.83;16.20;;;5.30;99.90;;;;;;5064199;28;20223;-75
2022/01/13 12:53:25;;;;;;;33.57;15.23;;;5.30;99.90;;;;;;5072923;28;20224;-75
2022/01/13 12:56:00;;;;;;;30.87;15.50;;;5.30;99.90;;;;;;5064638;28;20231;-76
2022/01/13 12:58:28;;;;;;;33.20;14.17;;;5.30;99.90;;;;;;5072229;28;20628;-75
2022/01/13 13:01:04;;;;;;;32.93;15.47;;;5.30;99.90;;;;;;5072615;28;20214;-75